createdAt,value
2024-01-11T00:04:56.102Z,-4.79
2024-01-11T00:09:59.275Z,-4.86
2024-01-11T00:15:03.825Z,-4.84
2024-01-11T00:20:08.798Z,-4.82
2024-01-11T00:25:11.963Z,-4.90
2024-01-11T00:30:16.840Z,-4.87
2024-01-11T00:35:20.244Z,-4.85
2024-01-11T00:40:23.509Z,-4.87
2024-01-11T00:45:27.957Z,-4.88
2024-01-11T00:50:31.538Z,-5.00
2024-01-11T00:55:34.665Z,-5.04
2024-01-11T01:00:39.255Z,-4.99
2024-01-11T01:05:42.580Z,-5.05
2024-01-11T01:10:45.804Z,-5.04
2024-01-11T01:15:50.362Z,-5.09
2024-01-11T01:20:53.703Z,-5.13
2024-01-11T01:25:57.067Z,-5.27
2024-01-11T01:31:01.641Z,-5.48
2024-01-11T01:36:05.392Z,-5.53
2024-01-11T01:41:08.873Z,-5.65
2024-01-11T01:46:16.188Z,-5.60
2024-01-11T01:51:20.029Z,-5.60
2024-01-11T01:56:23.671Z,-5.59
2024-01-11T02:01:28.932Z,-5.63
2024-01-11T02:06:35.486Z,-5.47
2024-01-11T02:11:40.306Z,-5.43
2024-01-11T02:16:44.811Z,-5.38
2024-01-11T02:21:50.450Z,-5.40
2024-01-11T02:27:02.049Z,-5.38
2024-01-11T02:32:06.401Z,-5.38
2024-01-11T02:37:09.702Z,-5.41
2024-01-11T02:42:14.747Z,-5.42
2024-01-11T02:47:18.094Z,-5.39
2024-01-11T02:52:21.411Z,-5.47
2024-01-11T02:57:25.867Z,-5.48
2024-01-11T03:02:29.458Z,-5.58
2024-01-11T03:07:33.641Z,-5.62
2024-01-11T03:12:38.583Z,-5.85
2024-01-11T03:17:41.803Z,-5.91
2024-01-11T03:22:48.170Z,-5.99
2024-01-11T03:27:52.627Z,-6.06
2024-01-11T03:32:55.971Z,-6.13
2024-01-11T03:37:59.497Z,-6.18
2024-01-11T03:43:04.131Z,-6.26
2024-01-11T03:48:08.319Z,-6.36
2024-01-11T03:53:11.992Z,-6.57
2024-01-11T03:58:16.458Z,-6.64
2024-01-11T04:03:19.580Z,-6.66
2024-01-11T04:08:22.933Z,-6.55
2024-01-11T04:13:27.449Z,-6.59
2024-01-11T04:18:30.819Z,-6.59
2024-01-11T04:23:34.023Z,-6.59
2024-01-11T04:28:38.990Z,-6.63
2024-01-11T04:33:42.692Z,-6.69
2024-01-11T04:38:46.815Z,-6.64
2024-01-11T04:43:51.446Z,-6.56
2024-01-11T04:48:55.080Z,-6.48
2024-01-11T04:53:58.431Z,-6.42
2024-01-11T04:59:03.022Z,-6.32
2024-01-11T05:04:06.166Z,-6.20
2024-01-11T05:09:09.593Z,-6.27
2024-01-11T05:14:14.074Z,-6.24
2024-01-11T05:19:17.340Z,-6.26
2024-01-11T05:24:20.488Z,-6.38
2024-01-11T05:29:25.056Z,-6.39
2024-01-11T05:34:28.311Z,-6.50
2024-01-11T05:39:31.781Z,-6.53
2024-01-11T05:44:36.295Z,-6.67
2024-01-11T05:49:39.413Z,-6.78
2024-01-11T05:54:42.588Z,-6.91
2024-01-11T05:59:47.422Z,-6.98
2024-01-11T06:04:50.633Z,-6.98
2024-01-11T06:09:54.193Z,-7.05
2024-01-11T06:14:58.766Z,-7.00
2024-01-11T06:20:01.988Z,-6.99
2024-01-11T06:25:05.600Z,-7.13
2024-01-11T06:30:11.057Z,-7.17
2024-01-11T06:35:14.425Z,-7.27
2024-01-11T06:40:17.581Z,-7.31
2024-01-11T06:45:22.440Z,-7.35
2024-01-11T06:50:25.648Z,-7.33
2024-01-11T06:55:29.184Z,-7.33
2024-01-11T07:00:33.713Z,-7.20
2024-01-11T07:05:36.933Z,-7.18
2024-01-11T07:10:40.258Z,-7.24
2024-01-11T07:15:44.892Z,-7.21
2024-01-11T07:20:49.013Z,-7.24
2024-01-11T07:25:52.845Z,-7.21
2024-01-11T07:30:57.458Z,-7.24
2024-01-11T07:36:00.723Z,-7.14
2024-01-11T07:41:04.351Z,-7.08
2024-01-11T07:46:09.014Z,-7.08
2024-01-11T07:51:12.204Z,-7.05
2024-01-11T07:56:15.775Z,-6.91
2024-01-11T08:01:20.983Z,-6.79
2024-01-11T08:06:24.207Z,-6.64
2024-01-11T08:11:29.141Z,-6.55
2024-01-11T08:16:35.763Z,-6.42
2024-01-11T08:21:38.860Z,-6.29
2024-01-11T08:26:42.062Z,-6.12
2024-01-11T08:31:47.020Z,-5.88
2024-01-11T08:36:50.147Z,-5.68
2024-01-11T08:41:53.671Z,-5.63
2024-01-11T08:47:00.461Z,-5.61
2024-01-11T08:52:04.304Z,-5.48
2024-01-11T08:57:07.433Z,-5.24
2024-01-11T09:02:15.833Z,-4.99
2024-01-11T09:07:22.149Z,-3.91
2024-01-11T09:12:25.318Z,-2.59
2024-01-11T09:17:29.888Z,-1.36
2024-01-11T09:22:33.739Z,-0.83
2024-01-11T09:27:36.981Z,-0.50
2024-01-11T09:32:41.674Z,-0.14
2024-01-11T09:37:47.225Z,0.42
2024-01-11T09:42:50.756Z,0.50
2024-01-11T09:47:55.679Z,1.03
2024-01-11T09:52:59.143Z,1.37
2024-01-11T09:58:02.909Z,1.71
2024-01-11T10:03:07.528Z,1.77
2024-01-11T10:08:10.996Z,1.97
2024-01-11T10:13:14.247Z,1.90
2024-01-11T10:18:22.241Z,2.43
2024-01-11T10:23:25.943Z,1.96
2024-01-11T10:28:29.390Z,2.33
2024-01-11T10:33:36.727Z,2.01
2024-01-11T10:38:41.621Z,2.31
2024-01-11T10:43:45.779Z,1.89
2024-01-11T10:48:57.811Z,2.37
2024-01-11T10:54:03.033Z,2.74
2024-01-11T10:59:06.683Z,2.90
2024-01-11T11:04:12.845Z,3.12
2024-01-11T11:09:17.006Z,2.83
2024-01-11T11:14:21.207Z,3.40
2024-01-11T11:19:26.692Z,3.28
2024-01-11T11:24:31.073Z,3.55
2024-01-11T11:29:34.441Z,3.06
2024-01-11T11:34:45.810Z,3.20
2024-01-11T11:39:49.359Z,3.76
2024-01-11T11:44:53.290Z,3.51
2024-01-11T11:50:05.591Z,3.82
2024-01-11T11:55:10.596Z,3.86
2024-01-11T12:00:15.596Z,3.16
2024-01-11T12:05:20.802Z,3.79
2024-01-11T12:10:24.145Z,3.42
2024-01-11T12:15:29.173Z,3.61
2024-01-11T12:20:34.440Z,3.61
2024-01-11T12:25:38.195Z,4.03
2024-01-11T12:30:41.719Z,3.77
2024-01-11T12:35:46.605Z,4.29
2024-01-11T12:40:50.400Z,4.21
2024-01-11T12:45:55.421Z,4.24
2024-01-11T12:51:10.565Z,3.90
2024-01-11T12:56:23.061Z,4.32
2024-01-11T13:01:26.790Z,4.72
2024-01-11T13:06:32.548Z,4.88
2024-01-11T13:11:35.987Z,4.87
2024-01-11T13:16:39.338Z,4.88
2024-01-11T13:21:43.833Z,4.76
2024-01-11T13:26:47.015Z,4.49
2024-01-11T13:31:50.184Z,4.09
2024-01-11T13:36:54.684Z,3.75
2024-01-11T13:41:57.807Z,3.34
2024-01-11T13:47:01.332Z,3.13
2024-01-11T13:52:07.391Z,3.06
2024-01-11T13:57:10.524Z,3.13
2024-01-11T14:02:13.788Z,3.07
2024-01-11T14:07:18.402Z,2.73
2024-01-11T14:12:22.038Z,2.46
2024-01-11T14:17:25.169Z,2.27
2024-01-11T14:22:29.633Z,2.07
2024-01-11T14:27:33.131Z,1.86
2024-01-11T14:32:37.840Z,2.00
2024-01-11T14:37:43.970Z,1.85
2024-01-11T14:42:47.146Z,1.66
2024-01-11T14:47:50.779Z,1.44
2024-01-11T14:52:55.334Z,1.38
2024-01-11T14:58:00.328Z,1.36
2024-01-11T15:03:05.062Z,1.17
2024-01-11T15:08:10.270Z,0.96
2024-01-11T15:13:13.582Z,0.88
2024-01-11T15:18:16.952Z,0.70
2024-01-11T15:23:21.700Z,0.61
2024-01-11T15:28:24.884Z,0.55
2024-01-11T15:33:28.078Z,0.38
2024-01-11T15:38:32.728Z,0.20
2024-01-11T15:43:35.814Z,0.13
2024-01-11T15:48:39.076Z,0.13
2024-01-11T15:53:44.882Z,-0.07
2024-01-11T15:58:48.140Z,-0.30
2024-01-11T16:03:53.230Z,-0.57
2024-01-11T16:08:57.882Z,-0.80
2024-01-11T16:14:01.644Z,-0.95
2024-01-11T16:19:04.890Z,-1.09
2024-01-11T16:24:09.457Z,-1.23
2024-01-11T16:29:12.629Z,-1.33
2024-01-11T16:34:15.850Z,-1.22
2024-01-11T16:39:20.328Z,-1.35
2024-01-11T16:44:23.475Z,-1.51
2024-01-11T16:49:26.616Z,-1.58
2024-01-11T16:54:31.032Z,-1.69
2024-01-11T16:59:36.122Z,-1.76
2024-01-11T17:04:41.419Z,-1.76
2024-01-11T17:09:45.884Z,-1.84
2024-01-11T17:14:49.049Z,-1.80
2024-01-11T17:19:52.275Z,-1.91
2024-01-11T17:24:58.777Z,-1.92
2024-01-11T17:30:01.982Z,-1.90
2024-01-11T17:35:06.159Z,-1.90
2024-01-11T17:40:12.274Z,-1.94
2024-01-11T17:45:15.471Z,-1.86
2024-01-11T17:50:18.620Z,-1.89
2024-01-11T17:55:23.472Z,-1.74
2024-01-11T18:00:30.863Z,-1.69
2024-01-11T18:05:34.155Z,-1.54
2024-01-11T18:10:39.425Z,-1.35
2024-01-11T18:15:42.754Z,-1.29
2024-01-11T18:20:46.005Z,-1.24
2024-01-11T18:25:50.660Z,-1.22
2024-01-11T18:30:53.881Z,-1.23
2024-01-11T18:35:57.460Z,-1.33
2024-01-11T18:41:02.150Z,-1.28
2024-01-11T18:46:06.776Z,-1.55
2024-01-11T18:51:09.994Z,-1.70
2024-01-11T18:56:17.362Z,-1.80
2024-01-11T19:01:26.289Z,-2.00
2024-01-11T19:06:30.875Z,-1.91
2024-01-11T19:11:35.488Z,-1.73
2024-01-11T19:16:38.796Z,-1.75
2024-01-11T19:21:41.910Z,-1.72
2024-01-11T19:26:50.570Z,-1.79
2024-01-11T19:31:53.742Z,-1.87
2024-01-11T19:36:56.886Z,-1.92
2024-01-11T19:42:01.625Z,-2.07
2024-01-11T19:47:05.065Z,-2.16
2024-01-11T19:52:08.238Z,-2.28
2024-01-11T19:57:12.681Z,-2.40
2024-01-11T20:02:15.846Z,-2.50
2024-01-11T20:07:19.904Z,-2.51
2024-01-11T20:12:24.504Z,-2.29
2024-01-11T20:17:27.699Z,-2.09
2024-01-11T20:22:30.873Z,-1.92
2024-01-11T20:27:36.160Z,-1.80
2024-01-11T20:32:39.708Z,-1.71
2024-01-11T20:37:43.201Z,-1.68
2024-01-11T20:42:47.666Z,-1.52
2024-01-11T20:47:51.569Z,-1.47
2024-01-11T20:52:54.827Z,-1.38
2024-01-11T20:57:59.336Z,-1.39
2024-01-11T21:03:02.758Z,-1.41
2024-01-11T21:08:06.704Z,-1.34
2024-01-11T21:13:12.798Z,-1.19
2024-01-11T21:18:16.341Z,-1.26
2024-01-11T21:23:19.847Z,-1.15
2024-01-11T21:28:24.319Z,-1.17
2024-01-11T21:33:27.498Z,-1.11
2024-01-11T21:38:30.662Z,-1.06
2024-01-11T21:43:35.222Z,-0.99
2024-01-11T21:48:38.480Z,-0.83
2024-01-11T21:53:42.682Z,-0.85
2024-01-11T21:58:47.173Z,-0.85
2024-01-11T22:03:50.349Z,-0.78
2024-01-11T22:08:58.659Z,-0.86
2024-01-11T22:14:03.923Z,-0.85
2024-01-11T22:19:08.492Z,-0.90
2024-01-11T22:24:11.721Z,-0.82
2024-01-11T22:29:16.531Z,-0.87
2024-01-11T22:34:19.819Z,-0.85
2024-01-11T22:39:23.097Z,-0.76
2024-01-11T22:44:28.117Z,-0.66
2024-01-11T22:49:31.274Z,-0.68
2024-01-11T22:54:35.173Z,-0.75
2024-01-11T22:59:39.822Z,-0.66
2024-01-11T23:04:42.967Z,-0.69
2024-01-11T23:09:46.073Z,-0.64
2024-01-11T23:14:50.639Z,-0.56
2024-01-11T23:19:53.778Z,-0.57
2024-01-11T23:24:56.960Z,-0.45
2024-01-11T23:30:01.588Z,-0.50
2024-01-11T23:35:05.206Z,-0.38
2024-01-11T23:40:10.116Z,-0.41
2024-01-11T23:45:14.930Z,-0.35
2024-01-11T23:50:18.440Z,-0.38
2024-01-11T23:55:21.851Z,-0.38
